Time;durP1;ratioP1;P1;durP2;ratioP2;P2;SDS_P1;SDS_P2;PMS_P1;PMS_P2;Temp;Humidity;BMP_temperature;BMP_pressure;BME280_temperature;BME280_humidity;BME280_pressure;Samples;Min_cycle;Max_cycle;Signal;HPM_P1;HPM_P2
2023/09/25 00:01:05;;;;;;;2.03;1.10;;;19.50;98.80;;;;;;5032055;28;20021;-38
2023/09/25 00:03:31;;;;;;;1.90;1.40;;;19.50;98.80;;;;;;5031999;28;20478;-39
2023/09/25 00:05:56;;;;;;;4.63;1.35;;;19.50;98.70;;;;;;5031766;28;20028;-38
2023/09/25 00:08:22;;;;;;;2.78;1.40;;;19.50;98.80;;;;;;5031773;28;20099;-42
2023/09/25 00:10:48;;;;;;;1.63;1.27;;;19.40;98.70;;;;;;5031682;28;20033;-36
2023/09/25 00:13:14;;;;;;;2.25;1.25;;;19.40;98.70;;;;;;5031554;28;20036;-35
2023/09/25 00:15:44;;;;;;;2.35;1.45;;;19.40;98.70;;;;;;5031235;28;20033;-39
2023/09/25 00:18:11;;;;;;;2.53;1.52;;;19.40;98.60;;;;;;5031742;28;20044;-38
2023/09/25 00:20:37;;;;;;;2.17;1.45;;;19.40;98.60;;;;;;5013719;28;20026;-42
2023/09/25 00:23:05;;;;;;;2.63;1.20;;;19.40;98.60;;;;;;5031502;28;20022;-38
2023/09/25 00:25:31;;;;;;;3.00;1.40;;;19.40;98.60;;;;;;5031185;28;20029;-38
2023/09/25 00:27:57;;;;;;;1.92;1.23;;;19.40;98.60;;;;;;5031321;28;20022;-40
2023/09/25 00:30:23;;;;;;;2.33;1.58;;;19.40;98.60;;;;;;5031386;28;20466;-39
2023/09/25 00:32:50;;;;;;;2.47;1.50;;;19.40;98.50;;;;;;5013955;28;20072;-40
2023/09/25 00:35:17;;;;;;;2.83;1.48;;;19.40;98.50;;;;;;5031213;28;20095;-39
2023/09/25 00:37:43;;;;;;;2.22;1.13;;;19.40;98.90;;;;;;5031116;28;20225;-40
2023/09/25 00:40:19;;;;;;;2.85;1.55;;;19.40;98.50;;;;;;5031338;28;20139;-41
2023/09/25 00:42:55;;;;;;;2.00;1.20;;;19.40;98.50;;;;;;5031305;28;20053;-36
2023/09/25 00:45:21;;;;;;;2.95;1.38;;;19.30;98.40;;;;;;5031206;28;20029;-39
2023/09/25 00:47:49;;;;;;;2.28;1.25;;;19.30;98.40;;;;;;5031261;28;20030;-41
2023/09/25 00:50:14;;;;;;;2.47;1.40;;;19.30;98.30;;;;;;5031234;28;20033;-38
2023/09/25 00:52:44;;;;;;;2.72;1.70;;;19.30;98.40;;;;;;5031010;28;20056;-38
2023/09/25 00:55:13;;;;;;;2.22;1.50;;;19.30;98.40;;;;;;5030982;28;20033;-40
2023/09/25 00:57:39;;;;;;;4.28;1.50;;;19.30;98.30;;;;;;5030946;28;20026;-38
2023/09/25 01:00:11;;;;;;;2.10;1.40;;;19.30;98.40;;;;;;5031108;28;20417;-39
2023/09/25 01:02:37;;;;;;;2.42;1.50;;;19.30;98.30;;;;;;5031050;28;20017;-41
2023/09/25 01:05:06;;;;;;;3.13;1.38;;;19.30;98.70;;;;;;5030901;28;20047;-40
2023/09/25 01:07:32;;;;;;;3.25;1.50;;;19.30;98.30;;;;;;5031749;28;20025;-39
2023/09/25 01:10:13;;;;;;;1.77;1.23;;;19.30;98.30;;;;;;5035058;28;20318;-36
2023/09/25 01:12:39;;;;;;;4.45;1.30;;;19.30;98.30;;;;;;5018366;28;20144;-42
2023/09/25 01:15:05;;;;;;;1.98;1.30;;;19.30;98.20;;;;;;5034709;28;20096;-40
2023/09/25 01:17:32;;;;;;;3.00;1.30;;;19.30;98.20;;;;;;5034686;28;20026;-38
2023/09/25 01:19:58;;;;;;;5.47;1.73;;;19.30;98.20;;;;;;5034684;28;20032;-40
2023/09/25 01:22:23;;;;;;;2.30;1.50;;;19.30;98.20;;;;;;5035076;28;20033;-38
2023/09/25 01:24:49;;;;;;;4.38;1.48;;;19.30;98.20;;;;;;5034548;28;20394;-38
2023/09/25 01:27:15;;;;;;;2.63;1.40;;;19.20;98.20;;;;;;5034734;28;20025;-36
2023/09/25 01:29:40;;;;;;;2.30;1.20;;;19.20;98.10;;;;;;5034583;28;20025;-40
2023/09/25 01:32:06;;;;;;;3.58;1.52;;;19.20;98.10;;;;;;5034595;28;20033;-37
2023/09/25 01:34:31;;;;;;;2.45;1.15;;;19.20;98.10;;;;;;5034279;28;20095;-36
2023/09/25 01:36:57;;;;;;;2.45;1.40;;;19.20;98.10;;;;;;5034208;28;20061;-38
2023/09/25 01:39:23;;;;;;;2.65;1.30;;;19.20;98.10;;;;;;5034421;28;20018;-40
2023/09/25 01:41:48;;;;;;;7.43;1.50;;;19.20;98.10;;;;;;5034410;28;20021;-38
2023/09/25 01:44:14;;;;;;;2.22;1.30;;;19.20;98.00;;;;;;5034312;28;20064;-38
2023/09/25 01:46:40;;;;;;;2.42;1.50;;;19.20;98.00;;;;;;5034093;28;20045;-38
2023/09/25 01:49:07;;;;;;;2.90;1.52;;;19.20;98.00;;;;;;5034206;28;20025;-38
2023/09/25 01:51:33;;;;;;;2.92;1.58;;;19.20;98.00;;;;;;5034371;28;20049;-43
2023/09/25 01:53:58;;;;;;;1.60;1.20;;;19.10;97.90;;;;;;5034193;28;20064;-40
2023/09/25 01:56:24;;;;;;;1.33;1.10;;;19.20;98.00;;;;;;5033792;28;20072;-43
2023/09/25 01:58:49;;;;;;;2.78;1.73;;;19.20;98.30;;;;;;5034113;28;20018;-36
2023/09/25 02:01:15;;;;;;;1.70;1.20;;;19.20;98.00;;;;;;5034040;28;20136;-37
2023/09/25 02:03:44;;;;;;;2.50;1.25;;;19.10;97.90;;;;;;5033927;28;20029;-36
2023/09/25 02:06:09;;;;;;;2.28;1.40;;;19.10;97.90;;;;;;5033988;28;20030;-40
2023/09/25 02:08:35;;;;;;;2.05;1.20;;;19.10;97.90;;;;;;5034526;28;20074;-40
2023/09/25 02:11:01;;;;;;;2.97;1.52;;;19.10;97.80;;;;;;5033827;28;20139;-39
2023/09/25 02:13:26;;;;;;;2.40;1.27;;;19.10;97.80;;;;;;5033869;28;20021;-39
2023/09/25 02:15:52;;;;;;;2.05;1.50;;;19.10;97.80;;;;;;5033427;28;20438;-41
2023/09/25 02:18:18;;;;;;;2.67;1.65;;;19.10;97.80;;;;;;5035042;28;20018;-38
2023/09/25 02:20:43;;;;;;;1.55;1.27;;;19.10;97.80;;;;;;5034785;28;20025;-38
2023/09/25 02:23:09;;;;;;;2.03;1.40;;;19.10;97.80;;;;;;5034854;28;20014;-35
2023/09/25 02:25:34;;;;;;;2.00;1.40;;;19.10;97.80;;;;;;5033325;28;20475;-38
2023/09/25 02:28:00;;;;;;;2.05;1.48;;;19.10;97.80;;;;;;5033630;28;20474;-38
2023/09/25 02:30:26;;;;;;;1.80;1.40;;;19.10;97.70;;;;;;5033479;28;20037;-36
2023/09/25 02:32:51;;;;;;;4.93;1.52;;;19.10;97.70;;;;;;5033339;28;20460;-39
2023/09/25 02:35:17;;;;;;;1.60;1.20;;;19.00;97.70;;;;;;5033343;28;20032;-36
2023/09/25 02:37:44;;;;;;;2.85;1.35;;;19.00;97.70;;;;;;5033166;28;20091;-38
2023/09/25 02:40:13;;;;;;;1.50;1.30;;;19.00;97.70;;;;;;5033352;28;20022;-36
2023/09/25 02:42:40;;;;;;;3.00;1.33;;;19.00;97.70;;;;;;5033245;28;20017;-38
2023/09/25 02:45:06;;;;;;;2.05;1.20;;;19.00;97.70;;;;;;5032849;28;20450;-41
2023/09/25 02:47:31;;;;;;;3.15;1.40;;;19.00;97.60;;;;;;5032996;28;20104;-36
2023/09/25 02:49:57;;;;;;;2.88;1.30;;;19.00;97.60;;;;;;5033132;28;20100;-36
2023/09/25 02:52:23;;;;;;;2.70;1.40;;;19.00;97.60;;;;;;5033081;28;20026;-37
2023/09/25 02:54:49;;;;;;;1.92;1.27;;;19.00;97.60;;;;;;5032976;28;20029;-38
2023/09/25 02:57:14;;;;;;;1.75;1.27;;;19.00;97.60;;;;;;5032745;28;20025;-37
2023/09/25 02:59:40;;;;;;;1.70;1.13;;;19.00;97.60;;;;;;5033431;28;20139;-36
2023/09/25 03:02:06;;;;;;;2.05;1.40;;;19.00;97.60;;;;;;5032791;28;20063;-37
2023/09/25 03:04:31;;;;;;;2.20;1.40;;;19.00;97.60;;;;;;5032616;28;20022;-38
2023/09/25 03:06:57;;;;;;;1.90;1.27;;;19.00;97.50;;;;;;5032559;28;20048;-37
2023/09/25 03:09:23;;;;;;;2.22;1.30;;;19.00;97.50;;;;;;5033134;28;20497;-38
2023/09/25 03:11:48;;;;;;;4.10;1.20;;;19.00;97.50;;;;;;5032680;28;20029;-36
2023/09/25 03:14:14;;;;;;;2.67;1.33;;;19.00;97.50;;;;;;5032653;28;20028;-37
2023/09/25 03:16:41;;;;;;;2.40;1.25;;;18.90;97.50;;;;;;5032240;28;20100;-38
2023/09/25 03:19:06;;;;;;;2.35;1.42;;;18.90;97.50;;;;;;5032510;28;20028;-36
2023/09/25 03:21:32;;;;;;;1.95;1.30;;;18.90;97.50;;;;;;5032501;28;20025;-39
2023/09/25 03:23:58;;;;;;;1.77;1.20;;;18.90;97.40;;;;;;5032530;28;20031;-39
2023/09/25 03:26:23;;;;;;;1.65;1.13;;;18.90;97.40;;;;;;5032304;28;20437;-36
2023/09/25 03:28:49;;;;;;;3.15;1.60;;;19.00;97.40;;;;;;5032467;28;20068;-40
2023/09/25 03:31:15;;;;;;;2.42;1.25;;;18.90;97.40;;;;;;5032166;28;20053;-38
2023/09/25 03:33:41;;;;;;;2.22;1.52;;;18.90;97.40;;;;;;5032290;28;20060;-40
2023/09/25 03:36:07;;;;;;;2.42;1.35;;;18.90;97.30;;;;;;5031894;28;20566;-38
2023/09/25 03:38:34;;;;;;;2.25;1.50;;;18.90;97.70;;;;;;5032530;28;20022;-38
2023/09/25 03:40:59;;;;;;;2.28;1.33;;;18.90;97.40;;;;;;5032578;28;20056;-42
2023/09/25 03:43:26;;;;;;;1.90;1.30;;;18.90;97.30;;;;;;5032119;28;20056;-38
2023/09/25 03:45:52;;;;;;;3.63;1.08;;;18.90;97.30;;;;;;5032150;28;20041;-38
2023/09/25 03:48:17;;;;;;;2.25;1.63;;;18.90;97.30;;;;;;5031940;28;20029;-38
2023/09/25 03:50:43;;;;;;;2.33;1.45;;;18.80;97.20;;;;;;5031996;28;20067;-39
2023/09/25 03:53:10;;;;;;;2.97;1.40;;;18.80;97.30;;;;;;5031919;28;20044;-36
2023/09/25 03:55:36;;;;;;;2.25;1.40;;;18.80;97.20;;;;;;5031697;28;20029;-39
2023/09/25 03:58:02;;;;;;;2.05;1.50;;;18.90;97.30;;;;;;5031831;28;20034;-38
2023/09/25 04:00:27;;;;;;;2.33;1.52;;;18.90;97.30;;;;;;5031814;28;20029;-35
2023/09/25 04:02:53;;;;;;;3.28;1.65;;;18.80;97.20;;;;;;5031889;28;20076;-39
2023/09/25 04:05:19;;;;;;;2.30;1.60;;;18.80;97.20;;;;;;5031559;28;20029;-36
2023/09/25 04:07:45;;;;;;;1.52;1.10;;;18.80;97.50;;;;;;5031886;28;20026;-39
2023/09/25 04:10:11;;;;;;;1.80;1.38;;;18.80;97.20;;;;;;5031645;28;20061;-37
2023/09/25 04:12:37;;;;;;;1.80;1.27;;;18.80;97.20;;;;;;5031551;28;20053;-38
2023/09/25 04:15:16;;;;;;;2.95;1.40;;;18.80;97.20;;;;;;5031297;28;20029;-39
2023/09/25 04:17:42;;;;;;;2.80;1.55;;;18.80;97.20;;;;;;5031541;28;20033;-37
2023/09/25 04:20:17;;;;;;;2.15;1.30;;;18.80;97.10;;;;;;5031548;28;20018;-38
2023/09/25 04:22:45;;;;;;;3.20;1.10;;;18.80;97.10;;;;;;5031550;28;20028;-38
2023/09/25 04:25:20;;;;;;;2.60;1.50;;;18.80;97.20;;;;;;5031197;28;20021;-38
2023/09/25 04:27:53;;;;;;;2.63;1.40;;;18.80;97.10;;;;;;5031409;28;20072;-38
2023/09/25 04:30:20;;;;;;;1.88;1.15;;;18.70;97.40;;;;;;5031484;28;20030;-40
2023/09/25 04:32:47;;;;;;;2.10;1.40;;;18.70;97.10;;;;;;5031402;28;20104;-38
2023/09/25 04:35:14;;;;;;;2.58;1.48;;;18.70;97.10;;;;;;5031173;28;20032;-39
2023/09/25 04:37:39;;;;;;;2.40;1.40;;;18.70;97.10;;;;;;5031144;28;20104;-39
2023/09/25 04:40:15;;;;;;;3.22;1.38;;;18.70;97.10;;;;;;5031225;28;20527;-39
2023/09/25 04:42:44;;;;;;;1.42;1.08;;;18.70;97.10;;;;;;5033949;28;20025;-43
2023/09/25 04:45:12;;;;;;;2.33;1.50;;;18.70;97.10;;;;;;5037922;28;20562;-38
2023/09/25 04:47:42;;;;;;;2.05;1.13;;;18.70;97.00;;;;;;5037735;28;20540;-39
2023/09/25 04:50:09;;;;;;;2.00;1.20;;;18.70;97.00;;;;;;5037686;28;20032;-38
2023/09/25 04:52:36;;;;;;;2.30;1.08;;;18.70;97.00;;;;;;5037745;28;20021;-36
2023/09/25 04:55:06;;;;;;;2.22;1.27;;;18.70;97.10;;;;;;5037601;28;20536;-35
2023/09/25 04:57:31;;;;;;;2.42;1.48;;;18.70;97.10;;;;;;5037627;28;20033;-44
2023/09/25 04:59:57;;;;;;;2.20;1.20;;;18.70;97.00;;;;;;5020083;28;20026;-37
2023/09/25 05:02:22;;;;;;;4.40;1.50;;;18.70;97.10;;;;;;5037710;28;20026;-38
2023/09/25 05:04:48;;;;;;;3.35;1.42;;;18.70;97.00;;;;;;5037476;28;20118;-42
2023/09/25 05:07:14;;;;;;;3.03;1.58;;;18.60;97.00;;;;;;5037575;28;20029;-37
2023/09/25 05:09:39;;;;;;;2.10;1.40;;;18.70;97.00;;;;;;5037712;28;20030;-44
2023/09/25 05:12:05;;;;;;;2.88;1.40;;;18.70;96.90;;;;;;5037559;28;20029;-40
2023/09/25 05:14:31;;;;;;;3.42;1.38;;;18.70;97.00;;;;;;5037531;28;20036;-41
2023/09/25 05:16:59;;;;;;;1.85;1.35;;;18.60;97.00;;;;;;5037463;28;20029;-38
2023/09/25 05:19:24;;;;;;;1.88;1.27;;;18.60;96.90;;;;;;5038388;28;20029;-40
2023/09/25 05:21:50;;;;;;;2.00;1.40;;;18.60;96.90;;;;;;5037790;28;20029;-43
2023/09/25 05:24:16;;;;;;;2.63;1.40;;;18.60;96.90;;;;;;5037643;28;20463;-41
2023/09/25 05:26:41;;;;;;;2.97;1.30;;;18.60;96.90;;;;;;5037419;28;20409;-44
2023/09/25 05:29:07;;;;;;;3.20;1.40;;;18.60;96.90;;;;;;5037516;28;20033;-38
2023/09/25 05:31:32;;;;;;;1.65;1.30;;;18.60;96.90;;;;;;5037408;28;20079;-41
2023/09/25 05:33:58;;;;;;;1.83;1.17;;;18.60;96.90;;;;;;5037297;28;20026;-39
2023/09/25 05:36:24;;;;;;;2.53;1.40;;;18.60;96.90;;;;;;5037048;28;20371;-43
2023/09/25 05:38:49;;;;;;;1.90;1.50;;;18.60;96.90;;;;;;5037379;28;20017;-39
2023/09/25 05:41:16;;;;;;;2.78;1.38;;;18.60;96.90;;;;;;5037394;28;20390;-40
2023/09/25 05:43:42;;;;;;;2.25;1.40;;;18.60;96.90;;;;;;5037536;28;20118;-38
2023/09/25 05:46:08;;;;;;;3.10;1.45;;;18.60;96.80;;;;;;5036967;28;20496;-43
2023/09/25 05:48:33;;;;;;;3.45;1.20;;;18.60;96.80;;;;;;5037253;28;20029;-41
2023/09/25 05:50:59;;;;;;;3.10;1.30;;;18.60;96.90;;;;;;5037163;28;20021;-40
2023/09/25 05:53:25;;;;;;;2.47;1.30;;;18.60;96.80;;;;;;5036561;28;20029;-39
2023/09/25 05:55:51;;;;;;;2.47;1.33;;;18.60;96.80;;;;;;5015493;28;20454;-39
2023/09/25 05:58:17;;;;;;;2.22;1.30;;;18.60;96.80;;;;;;5034159;28;20053;-42
2023/09/25 06:00:46;;;;;;;1.67;1.30;;;18.60;96.90;;;;;;5034106;28;20045;-40
2023/09/25 06:03:13;;;;;;;3.00;1.40;;;18.60;96.80;;;;;;5034515;28;20017;-38
2023/09/25 06:05:38;;;;;;;4.38;1.40;;;18.60;96.90;;;;;;5034392;28;20387;-37
2023/09/25 06:08:08;;;;;;;2.60;1.33;;;18.60;96.90;;;;;;5035502;28;20025;-36
2023/09/25 06:10:33;;;;;;;2.20;1.30;;;18.60;96.80;;;;;;5034483;28;20095;-38
2023/09/25 06:13:02;;;;;;;2.10;1.40;;;18.60;96.90;;;;;;5034752;28;20029;-39
2023/09/25 06:15:30;;;;;;;2.38;1.50;;;18.60;96.90;;;;;;5034238;28;20494;-37
2023/09/25 06:17:58;;;;;;;3.10;1.50;;;18.60;96.90;;;;;;5033733;28;20029;-39
2023/09/25 06:20:26;;;;;;;3.63;1.38;;;18.60;96.80;;;;;;5033723;28;20433;-38
2023/09/25 06:22:52;;;;;;;3.85;1.50;;;18.70;96.90;;;;;;5033701;28;20022;-38
2023/09/25 06:25:18;;;;;;;3.90;1.60;;;18.70;96.90;;;;;;5033428;28;20493;-38
2023/09/25 06:27:44;;;;;;;2.35;1.23;;;18.70;96.90;;;;;;5033482;28;20072;-38
2023/09/25 06:30:14;;;;;;;2.25;1.50;;;18.70;96.90;;;;;;5033420;28;20489;-40
2023/09/25 06:32:39;;;;;;;1.60;1.20;;;18.80;97.00;;;;;;5033428;28;20033;-39
2023/09/25 06:35:09;;;;;;;1.48;1.20;;;18.70;96.90;;;;;;5033180;28;20060;-39
2023/09/25 06:37:34;;;;;;;2.22;1.27;;;18.80;97.00;;;;;;5033347;28;20033;-38
2023/09/25 06:40:00;;;;;;;2.17;1.35;;;18.80;97.00;;;;;;5033341;28;20513;-37
2023/09/25 06:42:26;;;;;;;1.90;1.20;;;18.80;96.90;;;;;;5033296;28;20014;-36
2023/09/25 06:44:52;;;;;;;2.53;1.35;;;18.80;96.90;;;;;;5033024;28;20021;-42
2023/09/25 06:47:17;;;;;;;1.55;1.10;;;18.80;96.90;;;;;;5033011;28;20509;-39
2023/09/25 06:49:43;;;;;;;1.90;1.20;;;18.90;97.00;;;;;;5033153;28;20486;-38
2023/09/25 06:52:09;;;;;;;1.70;1.30;;;18.90;97.00;;;;;;5033191;28;20031;-38
2023/09/25 06:54:34;;;;;;;1.90;1.10;;;18.90;97.00;;;;;;5032946;28;20036;-40
2023/09/25 06:57:00;;;;;;;2.00;1.20;;;18.90;96.90;;;;;;5032849;28;20060;-40
2023/09/25 06:59:26;;;;;;;2.65;1.20;;;19.00;97.00;;;;;;5032815;28;20061;-38
2023/09/25 07:01:52;;;;;;;1.65;1.20;;;19.00;97.00;;;;;;5032963;28;20021;-37
2023/09/25 07:04:19;;;;;;;1.88;1.27;;;19.00;97.00;;;;;;5032809;28;20031;-38
2023/09/25 07:06:45;;;;;;;1.60;1.20;;;19.00;97.00;;;;;;5032357;28;20029;-38
2023/09/25 07:09:14;;;;;;;2.38;1.20;;;19.10;97.10;;;;;;5032861;28;20033;-38
2023/09/25 07:11:40;;;;;;;2.58;1.77;;;19.10;97.00;;;;;;5032720;28;20494;-38
2023/09/25 07:14:05;;;;;;;2.00;1.20;;;19.10;97.10;;;;;;5032548;28;20113;-39
2023/09/25 07:16:31;;;;;;;2.97;1.13;;;19.10;97.00;;;;;;5032538;28;20386;-39
2023/09/25 07:18:57;;;;;;;1.55;1.13;;;19.10;97.10;;;;;;5032805;28;20060;-36
2023/09/25 07:21:23;;;;;;;1.98;1.42;;;19.10;97.10;;;;;;5032618;28;20429;-36
2023/09/25 07:23:49;;;;;;;1.88;1.38;;;19.20;97.10;;;;;;5032605;28;20033;-38
2023/09/25 07:26:17;;;;;;;2.65;1.50;;;19.20;97.10;;;;;;5032274;28;20022;-38
2023/09/25 07:28:45;;;;;;;1.38;1.00;;;19.20;97.10;;;;;;5032331;28;20502;-37
2023/09/25 07:31:11;;;;;;;1.77;1.10;;;19.20;97.10;;;;;;5032360;28;20025;-38
2023/09/25 07:33:37;;;;;;;1.38;1.10;;;19.20;97.10;;;;;;5032316;28;20493;-39
2023/09/25 07:36:03;;;;;;;2.25;1.00;;;19.30;97.10;;;;;;5031957;28;20108;-37
2023/09/25 07:38:29;;;;;;;2.20;1.20;;;19.30;97.10;;;;;;5032265;28;20017;-39
2023/09/25 07:40:55;;;;;;;2.95;1.20;;;19.30;97.10;;;;;;5032142;28;20029;-38
2023/09/25 07:43:23;;;;;;;1.63;1.15;;;19.30;97.20;;;;;;5032017;28;20026;-39
2023/09/25 07:45:51;;;;;;;2.75;1.30;;;19.30;97.20;;;;;;5031700;28;20022;-39
2023/09/25 07:48:17;;;;;;;2.63;1.10;;;19.40;97.50;;;;;;5032045;28;20028;-42
2023/09/25 07:50:46;;;;;;;1.80;1.20;;;19.40;97.30;;;;;;5031996;28;20025;-39
2023/09/25 07:53:12;;;;;;;1.67;1.20;;;19.40;97.20;;;;;;5031917;28;20036;-45
2023/09/25 07:55:39;;;;;;;1.95;1.30;;;19.40;97.30;;;;;;5031571;28;20021;-39
2023/09/25 07:58:04;;;;;;;1.70;1.00;;;19.50;97.30;;;;;;5031835;28;20159;-40
2023/09/25 08:00:44;;;;;;;1.90;1.30;;;19.50;97.30;;;;;;5032156;28;20510;-38
2023/09/25 08:03:14;;;;;;;1.63;1.20;;;19.50;97.30;;;;;;5031922;28;20049;-39
2023/09/25 08:05:40;;;;;;;1.65;1.10;;;19.50;97.30;;;;;;5031620;28;20013;-39
2023/09/25 08:08:06;;;;;;;1.30;1.00;;;19.60;97.40;;;;;;5031678;28;20550;-39
2023/09/25 08:10:33;;;;;;;2.65;1.33;;;19.60;97.40;;;;;;5031872;28;20068;-37
2023/09/25 08:12:59;;;;;;;1.35;0.90;;;19.60;97.40;;;;;;5031567;28;20025;-38
2023/09/25 08:15:25;;;;;;;2.20;1.10;;;19.60;97.40;;;;;;5031736;28;20075;-40
2023/09/25 08:17:50;;;;;;;1.42;0.95;;;19.60;97.40;;;;;;5030856;28;20036;-36
2023/09/25 08:20:22;;;;;;;2.20;1.20;;;19.60;97.40;;;;;;5031977;28;20017;-35
2023/09/25 08:22:52;;;;;;;1.50;1.10;;;19.60;97.40;;;;;;5031440;28;20056;-37
2023/09/25 08:25:18;;;;;;;2.38;1.33;;;19.60;97.40;;;;;;5031348;28;20041;-39
2023/09/25 08:27:44;;;;;;;1.80;1.33;;;19.70;97.50;;;;;;5031312;28;20115;-37
2023/09/25 08:30:11;;;;;;;1.73;1.00;;;19.70;97.50;;;;;;5031483;28;20060;-37
2023/09/25 08:32:37;;;;;;;2.75;1.08;;;19.80;97.50;;;;;;5031397;28;20026;-39
2023/09/25 08:35:03;;;;;;;2.72;1.10;;;19.70;97.50;;;;;;5031127;28;20163;-40
2023/09/25 08:37:28;;;;;;;2.13;1.20;;;19.70;97.50;;;;;;5031576;28;20112;-43
2023/09/25 08:39:55;;;;;;;2.53;1.17;;;19.80;97.50;;;;;;5031283;28;20109;-40
2023/09/25 08:42:23;;;;;;;2.60;1.20;;;19.80;97.50;;;;;;5031246;28;20034;-42
2023/09/25 08:44:54;;;;;;;1.15;0.90;;;19.80;97.50;;;;;;5031140;28;20423;-35
2023/09/25 08:47:20;;;;;;;1.60;1.10;;;19.80;97.50;;;;;;5031040;28;20025;-38
2023/09/25 08:49:52;;;;;;;2.40;1.00;;;19.90;97.50;;;;;;5031174;28;20021;-41
2023/09/25 08:52:22;;;;;;;2.42;1.20;;;19.90;97.50;;;;;;5031370;28;20030;-38
2023/09/25 08:54:49;;;;;;;1.40;1.10;;;19.90;97.50;;;;;;5031111;28;20030;-40
2023/09/25 08:57:15;;;;;;;1.90;1.20;;;19.90;97.50;;;;;;5030880;28;20087;-39
2023/09/25 08:59:45;;;;;;;1.50;1.00;;;19.90;97.50;;;;;;5031168;28;20385;-36
2023/09/25 09:02:12;;;;;;;1.67;1.27;;;20.00;97.60;;;;;;5031145;28;20029;-41
2023/09/25 09:04:37;;;;;;;1.60;1.25;;;19.90;97.50;;;;;;5031049;28;20018;-44
2023/09/25 09:07:08;;;;;;;1.70;1.00;;;20.00;97.60;;;;;;5031083;28;20120;-42
2023/09/25 09:09:35;;;;;;;1.98;1.10;;;20.00;97.60;;;;;;5031094;28;20041;-39
2023/09/25 09:12:02;;;;;;;1.63;1.08;;;20.00;97.60;;;;;;5030939;28;20109;-41
2023/09/25 09:14:33;;;;;;;2.45;0.95;;;20.00;97.60;;;;;;5030898;28;20026;-39
2023/09/25 09:16:59;;;;;;;1.73;1.10;;;20.00;97.60;;;;;;5030707;28;20052;-40
2023/09/25 09:19:25;;;;;;;2.03;0.90;;;20.00;97.60;;;;;;5030933;28;20048;-39
2023/09/25 09:22:03;;;;;;;1.75;1.00;;;20.10;97.60;;;;;;5030984;28;20377;-43
2023/09/25 09:24:30;;;;;;;2.13;1.20;;;20.10;97.60;;;;;;5031268;28;20549;-39
2023/09/25 09:26:56;;;;;;;1.55;1.10;;;20.20;97.60;;;;;;5030725;28;20040;-40
2023/09/25 09:29:22;;;;;;;1.70;1.00;;;20.10;97.60;;;;;;5032901;28;20433;-42
2023/09/25 09:31:52;;;;;;;4.30;1.40;;;20.20;97.70;;;;;;5034570;28;20025;-39
2023/09/25 09:34:22;;;;;;;1.67;1.08;;;20.20;97.50;;;;;;5034694;28;20029;-41
2023/09/25 09:36:51;;;;;;;5.53;1.25;;;20.20;97.60;;;;;;5034281;28;20391;-42
2023/09/25 09:39:22;;;;;;;1.80;1.17;;;20.20;97.60;;;;;;5034519;28;20055;-41
2023/09/25 09:41:51;;;;;;;2.38;1.13;;;20.20;97.50;;;;;;5034440;28;20048;-38
2023/09/25 09:44:18;;;;;;;3.15;0.90;;;20.30;97.50;;;;;;5034253;28;20033;-40
2023/09/25 09:46:47;;;;;;;1.95;1.10;;;20.30;97.50;;;;;;5034697;28;20042;-41
2023/09/25 09:49:20;;;;;;;1.58;1.05;;;20.30;97.50;;;;;;5034314;28;20024;-40
2023/09/25 09:51:49;;;;;;;1.35;1.00;;;20.30;97.60;;;;;;5034211;28;20026;-41
2023/09/25 09:54:17;;;;;;;1.85;1.00;;;20.30;97.50;;;;;;5034114;28;20021;-41
2023/09/25 09:56:44;;;;;;;1.67;1.20;;;20.30;97.50;;;;;;5034293;28;20070;-36
2023/09/25 09:59:11;;;;;;;1.90;0.95;;;20.30;97.50;;;;;;5034500;28;20049;-41
2023/09/25 10:01:38;;;;;;;2.15;1.10;;;20.40;97.50;;;;;;5034422;28;20390;-36
2023/09/25 10:04:05;;;;;;;1.92;1.10;;;20.40;97.50;;;;;;5034088;28;20037;-38
2023/09/25 10:06:35;;;;;;;1.83;1.17;;;20.40;97.50;;;;;;5033865;28;20040;-38
2023/09/25 10:09:07;;;;;;;1.38;1.00;;;20.40;97.60;;;;;;5033931;28;20029;-37
2023/09/25 10:11:33;;;;;;;1.73;1.10;;;20.40;97.50;;;;;;5034070;28;20641;-36
2023/09/25 10:14:08;;;;;;;1.90;1.05;;;20.40;97.50;;;;;;5016390;28;20056;-38
2023/09/25 10:17:09;;;;;;;1.67;1.08;;;20.50;97.50;;;;;;5033587;28;20494;-36
2023/09/25 10:19:37;;;;;;;2.80;1.10;;;20.50;97.60;;;;;;4953226;29;20042;-39
2023/09/25 10:22:30;;;;;;;3.85;1.08;;;20.50;97.50;;;;;;5018785;28;20088;-38
2023/09/25 10:25:09;;;;;;;2.15;1.50;;;20.50;97.60;;;;;;5033544;28;20025;-35
2023/09/25 10:27:36;;;;;;;3.22;1.13;;;20.50;97.60;;;;;;5033581;28;20025;-37
2023/09/25 10:30:11;;;;;;;1.15;1.00;;;20.50;97.50;;;;;;5033495;28;20418;-38
2023/09/25 10:32:38;;;;;;;1.20;0.77;;;20.50;97.60;;;;;;5033509;28;20029;-37
2023/09/25 10:35:44;;;;;;;2.25;0.95;;;20.50;97.50;;;;;;5033309;28;20036;-38
2023/09/25 10:38:16;;;;;;;1.45;0.93;;;20.50;97.60;;;;;;5032114;28;20041;-36
2023/09/25 10:40:44;;;;;;;1.60;1.15;;;20.60;97.60;;;;;;5032705;28;20025;-38
2023/09/25 10:43:09;;;;;;;1.50;1.00;;;20.60;97.50;;;;;;5033555;28;20348;-35
2023/09/25 10:45:37;;;;;;;1.42;0.93;;;20.60;97.90;;;;;;5032951;28;20033;-39
2023/09/25 10:48:03;;;;;;;2.25;1.20;;;20.60;97.50;;;;;;5033298;28;20021;-41
2023/09/25 10:50:28;;;;;;;1.67;1.00;;;20.60;97.50;;;;;;5033266;28;20475;-36
2023/09/25 10:52:55;;;;;;;1.58;1.13;;;20.60;97.50;;;;;;5033039;28;20118;-39
2023/09/25 10:55:20;;;;;;;2.00;1.10;;;20.60;97.50;;;;;;5032865;28;20109;-38
2023/09/25 10:57:46;;;;;;;1.33;0.90;;;20.60;97.50;;;;;;5032893;28;20112;-41
2023/09/25 11:00:15;;;;;;;2.47;1.17;;;20.60;97.50;;;;;;5032988;28;20417;-38
2023/09/25 11:02:44;;;;;;;1.83;1.00;;;20.60;97.50;;;;;;5033000;28;20056;-40
2023/09/25 11:05:11;;;;;;;1.35;1.10;;;20.70;97.50;;;;;;5032769;28;20025;-38
2023/09/25 11:07:37;;;;;;;1.80;1.02;;;20.70;97.50;;;;;;5014894;28;20040;-38
2023/09/25 11:10:04;;;;;;;1.50;1.00;;;20.70;97.60;;;;;;5032919;28;20580;-38
2023/09/25 11:12:30;;;;;;;1.58;1.00;;;20.70;97.90;;;;;;5032827;28;20108;-39
2023/09/25 11:14:57;;;;;;;1.98;1.10;;;20.70;97.50;;;;;;5032811;28;20029;-39
2023/09/25 11:17:23;;;;;;;2.08;1.00;;;20.70;97.60;;;;;;5032439;28;20030;-36
2023/09/25 11:19:51;;;;;;;1.60;1.00;;;20.70;97.50;;;;;;5032629;28;20095;-36
2023/09/25 11:22:24;;;;;;;2.10;1.10;;;20.70;97.50;;;;;;5032716;28;20124;-39
2023/09/25 11:24:58;;;;;;;1.45;0.90;;;20.70;97.60;;;;;;5032442;28;20426;-41
2023/09/25 11:27:24;;;;;;;1.52;1.00;;;20.70;97.50;;;;;;5032384;28;20034;-38
2023/09/25 11:29:50;;;;;;;1.27;0.98;;;20.70;97.60;;;;;;5032837;28;20125;-36
2023/09/25 11:32:19;;;;;;;1.40;1.10;;;20.70;97.60;;;;;;5032335;28;20025;-39
2023/09/25 11:34:45;;;;;;;1.88;1.20;;;20.70;97.60;;;;;;5032182;28;20498;-39
2023/09/25 11:37:21;;;;;;;2.08;1.20;;;20.70;97.60;;;;;;5032045;28;20378;-39
2023/09/25 11:39:47;;;;;;;2.58;1.10;;;20.70;97.60;;;;;;5032229;28;20359;-39
2023/09/25 11:42:12;;;;;;;1.48;1.00;;;20.70;97.60;;;;;;5014409;28;20057;-40
2023/09/25 11:44:38;;;;;;;1.58;1.00;;;20.70;97.60;;;;;;5014180;28;20509;-39
2023/09/25 11:47:06;;;;;;;2.90;1.42;;;20.70;97.50;;;;;;5031796;28;20052;-38
2023/09/25 11:49:32;;;;;;;1.73;1.20;;;20.70;97.50;;;;;;5032153;28;20017;-39
2023/09/25 11:51:57;;;;;;;1.52;0.90;;;20.70;97.60;;;;;;5031129;28;20036;-39
2023/09/25 11:54:23;;;;;;;2.67;1.30;;;20.70;97.60;;;;;;5031850;28;20041;-38
2023/09/25 11:56:48;;;;;;;1.70;1.10;;;20.70;97.60;;;;;;5031692;28;20037;-41
2023/09/25 11:59:16;;;;;;;1.75;1.30;;;20.70;97.60;;;;;;5032013;28;20029;-40
2023/09/25 12:01:42;;;;;;;1.95;1.20;;;20.70;97.60;;;;;;5032091;28;20056;-39
2023/09/25 12:04:12;;;;;;;2.38;0.95;;;20.80;97.60;;;;;;5031886;28;20075;-38
2023/09/25 12:06:37;;;;;;;2.20;1.00;;;20.80;97.70;;;;;;5013773;28;20025;-39
2023/09/25 12:09:12;;;;;;;1.60;0.90;;;20.70;97.60;;;;;;5031976;28;20482;-35
2023/09/25 12:11:39;;;;;;;2.75;1.10;;;20.70;97.50;;;;;;5032201;28;20100;-37
2023/09/25 12:14:04;;;;;;;2.78;1.00;;;20.80;98.00;;;;;;5031532;28;20248;-37
2023/09/25 12:16:31;;;;;;;1.15;0.90;;;20.80;97.60;;;;;;5031604;28;20025;-40
2023/09/25 12:18:56;;;;;;;1.27;0.90;;;20.80;97.60;;;;;;5031613;28;20036;-45
2023/09/25 12:21:24;;;;;;;2.35;1.25;;;20.80;98.00;;;;;;5031420;28;20387;-43
2023/09/25 12:23:49;;;;;;;1.83;1.00;;;20.80;97.70;;;;;;5031608;28;20078;-43
2023/09/25 12:26:15;;;;;;;1.48;1.00;;;20.80;97.70;;;;;;5031679;28;20037;-40
2023/09/25 12:28:41;;;;;;;2.45;1.20;;;20.80;97.70;;;;;;5031317;28;20051;-41
2023/09/25 12:31:07;;;;;;;2.88;1.00;;;20.80;97.80;;;;;;5031520;28;20067;-38
2023/09/25 12:33:33;;;;;;;1.85;1.15;;;20.80;97.80;;;;;;5032258;28;20037;-41
2023/09/25 12:36:00;;;;;;;2.38;1.15;;;20.80;97.80;;;;;;5032824;28;20093;-42
2023/09/25 12:38:27;;;;;;;1.60;1.08;;;20.80;97.80;;;;;;5032861;28;20021;-41
2023/09/25 12:40:52;;;;;;;1.75;1.00;;;20.80;97.80;;;;;;5031786;28;20026;-39
2023/09/25 12:43:18;;;;;;;1.23;1.05;;;20.80;97.90;;;;;;5031229;28;20020;-40
2023/09/25 12:45:44;;;;;;;2.25;0.88;;;20.80;97.80;;;;;;5030923;28;20109;-38
2023/09/25 12:48:09;;;;;;;1.65;1.00;;;20.80;97.80;;;;;;5031282;28;20053;-41